Impacts TAF Board INFO
FOR SITUATIONAL AWARENESS. NOT TO BE USED FOR FLIGHT PLANNING PURPOSES.
IDs:

KEET - Alabaster/Shelby Cnt, AL, US

Issued at 2338 UTC 19 Nov 2017
Updated at 0355 UTC 20 Nov 2017
Potential Impact None Slight Moderate High
Time0353Z 20/04Z 20/05Z 20/06Z 20/07Z 20/08Z 20/09Z 20/10Z 20/11Z 20/12Z 20/13Z 20/14Z 20/15Z 20/16Z>>
Type OBS PRVL PRVL PRVL PRVL PRVL PRVL PRVL PRVL PRVL PRVL PRVL PRVL PRVL
VIS 10 >6 >6 >6 >6 >6 >6 >6 >6 >6 >6 >6 >6 >6
CIG -- -- -- -- -- -- -- -- -- -- -- -- -- --
Cover CLR SKC SKC SKC SKC SKC SKC SKC SKC SKC SKC SKC SCT SCT
FltCat VFR VFR VFR VFR VFR VFR VFR VFR VFR VFR VFR VFR VFR VFR
WX -- -- -- -- -- -- -- -- -- -- -- -- -- --
WDir VRB VRB VRB VRB VRB VRB VRB VRB VRB VRB VRB VRB 90 90
WSpd 0 2 2 2 2 2 2 2 2 2 2 2 5 5
WGst -- -- -- -- -- -- -- -- -- -- -- -- -- --

Raw TAF
KEET 192338Z 2000/2024 VRB02KT P6SM SKC
  FM201500 09005KT P6SM SCT300


Raw METAR
KEET 200353Z AUTO 00000KT 10SM CLR 04/M01 A3021 RMK AO2 SLP231 T00391006
KEET 200253Z AUTO 00000KT 10SM CLR 05/M01 A3019 RMK AO2 SLP224 T00501006 51013
KEET 200153Z AUTO 32003KT 10SM CLR 06/00 A3018 RMK AO2 SLP221 T00560000
KEET 200053Z AUTO 00000KT 10SM CLR 07/M01 A3017 RMK AO2 SLP216 T00721006

METAR Board
Radar Display
Forecast Discussion

FOR SITUATIONAL AWARENESS. NOT TO BE USED FOR FLIGHT PLANNING PURPOSES.